Time;durP1;ratioP1;P1;durP2;ratioP2;P2;SDS_P1;SDS_P2;PMS_P1;PMS_P2;Temp;Humidity;BMP_temperature;BMP_pressure;BME280_temperature;BME280_humidity;BME280_pressure;Samples;Min_cycle;Max_cycle;Signal;HPM_P1;HPM_P2
2023/08/26 00:01:57;;;;;;;;;;;21.70;99.90;;;;;;5071652;28;19945;-69
2023/08/26 00:04:23;;;;;;;;;;;21.80;99.90;;;;;;5049272;28;20034;-70
2023/08/26 00:06:49;;;;;;;;;;;21.70;99.90;;;;;;5072444;28;19962;-70
2023/08/26 00:09:14;;;;;;;;;;;21.60;99.90;;;;;;5070685;28;19960;-70
2023/08/26 00:11:43;;;;;;;;;;;21.60;99.90;;;;;;5066296;28;19933;-70
2023/08/26 00:14:08;;;;;;;;;;;21.60;99.90;;;;;;5049379;28;19943;-70
2023/08/26 00:16:34;;;;;;;;;;;21.60;99.90;;;;;;5054383;28;19925;-70
2023/08/26 00:18:59;;;;;;;;;;;21.60;99.90;;;;;;5067280;28;19999;-70
2023/08/26 00:21:25;;;;;;;;;;;21.60;99.90;;;;;;5054562;28;20710;-70
2023/08/26 00:23:51;;;;;;;;;;;21.60;99.90;;;;;;5065204;28;20024;-70
2023/08/26 00:26:17;;;;;;;;;;;21.60;99.90;;;;;;5070672;28;19947;-71
2023/08/26 00:28:43;;;;;;;;;;;21.60;99.90;;;;;;5048955;28;19922;-70
2023/08/26 00:31:08;;;;;;;;;;;21.50;99.90;;;;;;5063980;28;20029;-71
2023/08/26 00:33:34;;;;;;;;;;;21.50;99.90;;;;;;5070479;28;20011;-70
2023/08/26 00:35:59;;;;;;;;;;;21.40;99.90;;;;;;5057014;28;20447;-69
2023/08/26 00:38:25;;;;;;;;;;;21.50;99.90;;;;;;5056263;28;19961;-70
2023/08/26 00:40:50;;;;;;;;;;;21.40;99.90;;;;;;5071764;28;19967;-70
2023/08/26 00:43:15;;;;;;;;;;;21.40;99.90;;;;;;5070631;28;20235;-70
2023/08/26 00:45:44;;;;;;;;;;;21.50;99.90;;;;;;5065916;28;19932;-70
2023/08/26 00:48:13;;;;;;;;;;;21.50;99.90;;;;;;5058281;28;19927;-70
2023/08/26 00:50:39;;;;;;;;;;;21.40;99.90;;;;;;5048658;28;20973;-71
2023/08/26 00:53:08;;;;;;;;;;;21.40;99.90;;;;;;5061943;28;19988;-70
2023/08/26 00:55:35;;;;;;;;;;;21.40;99.90;;;;;;5062353;28;19930;-70
2023/08/26 00:58:00;;;;;;;;;;;21.50;99.90;;;;;;5060195;28;19941;-70
2023/08/26 01:00:26;;;;;;;;;;;21.50;99.90;;;;;;5064985;28;19973;-70
2023/08/26 01:02:51;;;;;;;;;;;21.40;99.90;;;;;;5060894;28;20055;-70
2023/08/26 01:05:17;;;;;;;;;;;21.40;99.90;;;;;;5057001;28;19958;-70
2023/08/26 01:07:44;;;;;;;;;;;21.40;99.90;;;;;;5066724;28;20471;-70
2023/08/26 01:10:10;;;;;;;;;;;21.50;99.90;;;;;;5068043;28;19928;-70
2023/08/26 01:12:44;;;;;;;;;;;21.50;99.90;;;;;;5074477;28;20241;-71
2023/08/26 01:15:12;;;;;;;;;;;21.50;99.90;;;;;;5075628;28;19927;-70
2023/08/26 01:17:38;;;;;;;;;;;21.50;99.90;;;;;;5071524;28;19965;-69
2023/08/26 01:20:05;;;;;;;;;;;21.60;99.90;;;;;;5065588;28;19975;-70
2023/08/26 01:22:33;;;;;;;;;;;21.60;99.90;;;;;;5070080;28;20388;-69
2023/08/26 01:24:59;;;;;;;;;;;21.60;99.90;;;;;;5072883;28;19937;-69
2023/08/26 01:27:24;;;;;;;;;;;21.70;99.90;;;;;;5061179;28;19932;-69
2023/08/26 01:29:50;;;;;;;;;;;21.70;99.90;;;;;;5065434;28;19951;-69
2023/08/26 01:32:18;;;;;;;;;;;21.70;99.90;;;;;;5063629;28;20035;-69
2023/08/26 01:34:49;;;;;;;;;;;21.60;99.90;;;;;;5059797;28;19945;-68
2023/08/26 01:37:17;;;;;;;;;;;21.70;99.90;;;;;;5055383;28;19934;-71
2023/08/26 01:39:44;;;;;;;;;;;21.70;99.90;;;;;;5054844;28;19966;-70
2023/08/26 01:42:12;;;;;;;;;;;21.60;99.90;;;;;;5055282;28;19965;-70
2023/08/26 01:44:38;;;;;;;;;;;21.50;99.90;;;;;;5067299;28;19929;-70
2023/08/26 01:47:04;;;;;;;;;;;21.50;99.90;;;;;;5071988;28;19961;-70
2023/08/26 01:49:29;;;;;;;;;;;21.50;99.90;;;;;;5069253;28;19934;-70
2023/08/26 01:51:55;;;;;;;;;;;21.40;99.90;;;;;;5061615;28;20600;-70
2023/08/26 01:54:20;;;;;;;;;;;21.30;99.90;;;;;;5058247;28;20438;-69
2023/08/26 01:56:46;;;;;;;;;;;21.30;99.90;;;;;;5073966;28;19929;-69
2023/08/26 01:59:11;;;;;;;;;;;21.30;99.90;;;;;;5073777;28;20416;-69
2023/08/26 02:01:37;;;;;;;;;;;21.40;99.90;;;;;;5068787;28;19967;-70
2023/08/26 02:04:03;;;;;;;;;;;21.40;99.90;;;;;;5063004;28;20323;-69
2023/08/26 02:06:28;;;;;;;;;;;21.40;99.90;;;;;;5058010;28;19931;-69
2023/08/26 02:08:57;;;;;;;;;;;21.40;99.90;;;;;;5073651;28;19932;-69
2023/08/26 02:11:22;;;;;;;;;;;21.40;99.90;;;;;;5075032;28;20015;-69
2023/08/26 02:13:48;;;;;;;;;;;21.50;99.90;;;;;;5075233;28;20083;-69
2023/08/26 02:16:13;;;;;;;;;;;21.40;99.90;;;;;;5064030;28;19926;-69
2023/08/26 02:18:39;;;;;;;;;;;21.40;99.90;;;;;;5070254;28;20002;-69
2023/08/26 02:21:05;;;;;;;;;;;21.30;99.90;;;;;;5062939;28;19929;-69
2023/08/26 02:23:30;;;;;;;;;;;21.30;99.90;;;;;;5072926;28;19926;-69
2023/08/26 02:25:56;;;;;;;;;;;21.10;99.90;;;;;;5060733;28;19987;-69
2023/08/26 02:28:21;;;;;;;;;;;21.10;99.90;;;;;;5072698;28;19946;-69
2023/08/26 02:30:47;;;;;;;;;;;21.10;99.90;;;;;;5070690;28;20553;-69
2023/08/26 02:33:12;;;;;;;;;;;21.00;99.90;;;;;;5054180;28;19932;-70
2023/08/26 02:35:38;;;;;;;;;;;21.10;99.90;;;;;;5061736;28;20011;-69
2023/08/26 02:38:03;;;;;;;;;;;21.00;99.90;;;;;;5065738;28;20415;-69
2023/08/26 02:40:29;;;;;;;;;;;21.00;99.90;;;;;;5063775;28;20506;-69
2023/08/26 02:42:54;;;;;;;;;;;21.00;99.90;;;;;;5067929;28;19954;-69
2023/08/26 02:45:20;;;;;;;;;;;21.00;99.90;;;;;;5071106;28;19931;-69
2023/08/26 02:47:46;;;;;;;;;;;21.00;99.90;;;;;;5060265;28;20017;-69
2023/08/26 02:50:11;;;;;;;;;;;21.00;99.90;;;;;;5068831;28;19985;-69
2023/08/26 02:52:37;;;;;;;;;;;21.00;99.90;;;;;;5056168;28;19940;-69
2023/08/26 02:55:02;;;;;;;;;;;21.00;99.90;;;;;;5072328;28;19927;-69
2023/08/26 02:57:28;;;;;;;;;;;20.90;99.90;;;;;;5066453;28;20514;-69
2023/08/26 02:59:53;;;;;;;;;;;20.90;99.90;;;;;;5075733;28;19969;-69
2023/08/26 03:02:24;;;;;;;;;;;20.90;99.90;;;;;;5070492;28;19937;-69
2023/08/26 03:04:50;;;;;;;;;;;20.80;99.90;;;;;;5062513;28;20293;-70
2023/08/26 03:07:16;;;;;;;;;;;20.70;99.90;;;;;;5060707;28;20418;-70
2023/08/26 03:09:41;;;;;;;;;;;20.70;99.90;;;;;;5045181;28;20461;-69
2023/08/26 03:12:07;;;;;;;;;;;20.70;99.90;;;;;;5063686;28;20515;-69
2023/08/26 03:14:32;;;;;;;;;;;20.70;99.90;;;;;;5066097;28;19932;-69
2023/08/26 03:16:58;;;;;;;;;;;20.70;99.90;;;;;;5068594;28;20758;-69
2023/08/26 03:19:23;;;;;;;;;;;20.70;99.90;;;;;;5074749;28;19954;-69
2023/08/26 03:21:49;;;;;;;;;;;20.70;99.90;;;;;;5067299;28;20026;-69
2023/08/26 03:24:16;;;;;;;;;;;20.60;99.90;;;;;;5054578;28;19941;-69
2023/08/26 03:26:42;;;;;;;;;;;20.70;99.90;;;;;;5062629;28;19939;-69
2023/08/26 03:29:08;;;;;;;;;;;20.60;99.90;;;;;;5064855;28;20028;-69
2023/08/26 03:31:33;;;;;;;;;;;20.60;99.90;;;;;;5067934;28;20313;-69
2023/08/26 03:33:58;;;;;;;;;;;20.60;99.90;;;;;;5067095;28;20102;-70
2023/08/26 03:36:24;;;;;;;;;;;20.60;99.90;;;;;;5074751;28;19931;-69
2023/08/26 03:38:50;;;;;;;;;;;20.60;99.90;;;;;;5064851;28;19962;-69
2023/08/26 03:41:15;;;;;;;;;;;20.70;99.90;;;;;;5069761;28;19934;-70
2023/08/26 03:43:41;;;;;;;;;;;20.70;99.90;;;;;;5073942;28;20003;-69
2023/08/26 03:46:06;;;;;;;;;;;20.70;99.90;;;;;;5063348;28;19933;-69
2023/08/26 03:48:32;;;;;;;;;;;20.60;99.90;;;;;;5068820;28;20505;-69
2023/08/26 03:50:57;;;;;;;;;;;20.60;99.90;;;;;;5064975;28;20760;-69
2023/08/26 03:53:23;;;;;;;;;;;20.70;99.90;;;;;;5064512;28;19937;-69
2023/08/26 03:55:49;;;;;;;;;;;20.60;99.90;;;;;;5068152;28;20375;-69
2023/08/26 03:58:14;;;;;;;;;;;20.50;99.90;;;;;;5055688;28;19955;-69
2023/08/26 04:00:40;;;;;;;;;;;20.40;99.90;;;;;;5068390;28;19932;-69
2023/08/26 04:03:06;;;;;;;;;;;20.50;99.90;;;;;;5071668;28;19932;-69
2023/08/26 04:05:31;;;;;;;;;;;20.50;99.90;;;;;;5063382;28;19931;-69
2023/08/26 04:07:57;;;;;;;;;;;20.50;99.90;;;;;;5073279;28;19941;-69
2023/08/26 04:10:23;;;;;;;;;;;20.60;99.90;;;;;;5067315;28;21128;-70
2023/08/26 04:12:48;;;;;;;;;;;20.60;99.90;;;;;;5068708;28;19929;-70
2023/08/26 04:15:14;;;;;;;;;;;20.60;99.90;;;;;;5079224;28;19930;-69
2023/08/26 04:17:40;;;;;;;;;;;20.50;99.90;;;;;;5059508;28;19961;-69
2023/08/26 04:20:06;;;;;;;;;;;20.50;99.90;;;;;;5070991;28;20025;-69
2023/08/26 04:22:32;;;;;;;;;;;20.50;99.90;;;;;;5067121;28;20021;-69
2023/08/26 04:24:57;;;;;;;;;;;20.40;99.90;;;;;;5073520;28;20083;-68
2023/08/26 04:27:23;;;;;;;;;;;20.40;99.90;;;;;;5076924;28;19942;-69
2023/08/26 04:29:48;;;;;;;;;;;20.40;99.90;;;;;;5074294;28;19966;-69
2023/08/26 04:32:13;;;;;;;;;;;20.50;99.90;;;;;;5068323;28;20003;-69
2023/08/26 04:34:39;;;;;;;;;;;20.50;99.90;;;;;;5057645;28;20033;-69
2023/08/26 04:37:04;;;;;;;;;;;20.50;99.90;;;;;;5066285;28;19944;-69
2023/08/26 04:39:30;;;;;;;;;;;20.50;99.90;;;;;;5062545;28;20004;-69
2023/08/26 04:41:56;;;;;;;;;;;20.40;99.90;;;;;;5076951;28;19934;-69
2023/08/26 04:44:21;;;;;;;;;;;20.50;99.90;;;;;;5077564;28;19939;-69
2023/08/26 04:46:47;;;;;;;;;;;20.50;99.90;;;;;;5071806;28;19940;-69
2023/08/26 04:49:12;;;;;;;;;;;20.50;99.90;;;;;;5077287;28;19965;-69
2023/08/26 04:51:38;;;;;;;;;;;20.60;99.90;;;;;;5056126;28;19935;-69
2023/08/26 04:54:04;;;;;;;;;;;20.60;99.90;;;;;;5077791;28;24910;-70
2023/08/26 04:56:30;;;;;;;;;;;20.70;99.90;;;;;;5073509;28;19934;-70
2023/08/26 04:58:56;;;;;;;;;;;20.80;99.90;;;;;;5075532;28;19952;-69
2023/08/26 05:01:21;;;;;;;;;;;20.90;99.90;;;;;;5070068;28;20444;-70
2023/08/26 05:03:47;;;;;;;;;;;21.00;99.90;;;;;;5058673;28;19938;-70
2023/08/26 05:06:13;;;;;;;;;;;21.00;99.90;;;;;;5067430;28;19930;-70
2023/08/26 05:08:38;;;;;;;;;;;21.10;99.90;;;;;;5065920;28;20498;-70
2023/08/26 05:11:05;;;;;;;;;;;21.20;99.90;;;;;;5064083;28;19923;-70
2023/08/26 05:13:30;;;;;;;;;;;21.30;99.90;;;;;;5062839;28;19933;-70
2023/08/26 05:15:56;;;;;;;;;;;21.50;99.90;;;;;;5065218;28;19982;-70
2023/08/26 05:18:21;;;;;;;;;;;21.60;99.90;;;;;;5058628;28;19959;-70
2023/08/26 05:20:47;;;;;;;;;;;21.80;99.90;;;;;;5050594;28;20160;-70
2023/08/26 05:23:14;;;;;;;;;;;21.90;99.90;;;;;;5058847;28;20490;-70
2023/08/26 05:25:40;;;;;;;;;;;22.00;99.90;;;;;;5053578;28;19928;-69
2023/08/26 05:28:05;;;;;;;;;;;22.10;99.90;;;;;;5064017;28;19936;-70
2023/08/26 05:30:31;;;;;;;;;;;22.20;99.90;;;;;;5051962;28;20021;-70
2023/08/26 05:32:56;;;;;;;;;;;22.40;99.90;;;;;;5060321;28;19942;-69
2023/08/26 05:35:22;;;;;;;;;;;22.50;99.90;;;;;;5054759;28;19946;-61
2023/08/26 05:37:47;;;;;;;;;;;22.60;99.90;;;;;;5066339;28;19995;-61
2023/08/26 05:40:13;;;;;;;;;;;22.70;99.90;;;;;;5058715;28;19949;-60
2023/08/26 05:42:38;;;;;;;;;;;22.70;99.90;;;;;;5052263;28;20370;-60
2023/08/26 05:45:05;;;;;;;;;;;22.70;99.90;;;;;;5057447;28;19924;-61
2023/08/26 05:47:30;;;;;;;;;;;22.70;99.90;;;;;;5073734;28;19929;-60
2023/08/26 05:49:58;;;;;;;;;;;22.80;99.90;;;;;;5072180;28;19923;-60
2023/08/26 05:52:24;;;;;;;;;;;23.00;99.90;;;;;;5063762;28;19929;-61
2023/08/26 05:54:49;;;;;;;;;;;23.10;99.90;;;;;;5060321;28;20556;-69
2023/08/26 05:57:15;;;;;;;;;;;23.40;99.90;;;;;;5066625;28;20391;-70
2023/08/26 05:59:40;;;;;;;;;;;23.50;99.90;;;;;;5052085;28;19957;-70
2023/08/26 06:02:06;;;;;;;;;;;23.70;99.90;;;;;;5059287;28;19921;-70
2023/08/26 06:04:31;;;;;;;;;;;23.80;99.90;;;;;;5055054;28;19943;-70
2023/08/26 06:07:00;;;;;;;;;;;24.00;99.90;;;;;;5059825;28;19939;-70
2023/08/26 06:09:26;;;;;;;;;;;24.10;99.90;;;;;;5060769;28;20484;-71
2023/08/26 06:11:51;;;;;;;;;;;24.30;99.90;;;;;;5061876;28;20424;-61
2023/08/26 06:14:17;;;;;;;;;;;24.40;99.90;;;;;;5062333;28;19922;-60
2023/08/26 06:16:42;;;;;;;;;;;24.50;99.90;;;;;;5049362;28;20610;-61
2023/08/26 06:19:08;;;;;;;;;;;24.60;99.90;;;;;;5069155;28;19992;-60
2023/08/26 06:21:34;;;;;;;;;;;24.70;99.90;;;;;;5047279;28;19947;-60
2023/08/26 06:24:00;;;;;;;;;;;24.90;99.90;;;;;;5034124;28;20409;-60
2023/08/26 06:26:25;;;;;;;;;;;25.00;99.90;;;;;;5059379;28;19941;-61
2023/08/26 06:28:51;;;;;;;;;;;25.10;99.90;;;;;;5063866;28;19933;-70
2023/08/26 06:31:16;;;;;;;;;;;25.10;99.90;;;;;;5065104;28;19929;-70
2023/08/26 06:33:42;;;;;;;;;;;25.10;99.90;;;;;;5065606;28;19930;-70
2023/08/26 06:36:08;;;;;;;;;;;25.20;99.90;;;;;;5065723;28;20050;-70
2023/08/26 06:38:34;;;;;;;;;;;25.40;99.90;;;;;;5061088;28;19969;-70
2023/08/26 06:40:59;;;;;;;;;;;25.50;99.90;;;;;;5059956;28;19931;-70
2023/08/26 06:43:25;;;;;;;;;;;25.60;99.90;;;;;;5074778;28;20010;-70
2023/08/26 06:45:50;;;;;;;;;;;25.60;99.90;;;;;;5068055;28;19977;-70
2023/08/26 06:48:16;;;;;;;;;;;25.80;99.90;;;;;;5062653;28;19939;-71
2023/08/26 06:50:46;;;;;;;;;;;25.90;99.90;;;;;;5055446;28;20479;-71
2023/08/26 06:53:12;;;;;;;;;;;26.10;99.90;;;;;;5061363;28;19959;-69
2023/08/26 06:55:37;;;;;;;;;;;26.20;99.90;;;;;;5058717;28;20399;-69
2023/08/26 06:58:03;;;;;;;;;;;26.30;99.90;;;;;;5035340;28;20115;-69
2023/08/26 07:00:28;;;;;;;;;;;26.40;99.90;;;;;;5056532;28;20538;-69
2023/08/26 07:02:54;;;;;;;;;;;26.50;99.90;;;;;;5062686;28;20397;-68
2023/08/26 07:05:19;;;;;;;;;;;26.60;99.90;;;;;;5055365;28;19935;-68
2023/08/26 07:07:45;;;;;;;;;;;26.80;99.90;;;;;;5056483;28;20872;-64
2023/08/26 07:10:10;;;;;;;;;;;26.90;99.90;;;;;;5072254;28;19940;-63
2023/08/26 07:12:36;;;;;;;;;;;27.10;99.90;;;;;;5062198;28;20322;-63
2023/08/26 07:15:03;;;;;;;;;;;27.20;99.90;;;;;;5053505;28;20526;-63
2023/08/26 07:17:28;;;;;;;;;;;27.40;99.90;;;;;;5020274;28;1350674;-63
2023/08/26 07:19:54;;;;;;;;;;;27.50;99.90;;;;;;5060711;28;19950;-63
2023/08/26 07:22:19;;;;;;;;;;;27.40;99.90;;;;;;5071776;28;19953;-63
2023/08/26 07:24:45;;;;;;;;;;;27.30;99.90;;;;;;5075842;28;20016;-63
2023/08/26 07:27:12;;;;;;;;;;;27.30;99.90;;;;;;5074494;28;19929;-69
2023/08/26 07:29:37;;;;;;;;;;;27.40;99.90;;;;;;5070159;28;19952;-70
2023/08/26 07:32:04;;;;;;;;;;;27.50;99.90;;;;;;5068674;28;19921;-70
2023/08/26 07:34:29;;;;;;;;;;;27.60;99.90;;;;;;5076383;28;19973;-70
2023/08/26 07:36:55;;;;;;;;;;;27.60;99.90;;;;;;5068783;28;20242;-70
2023/08/26 07:39:21;;;;;;;;;;;27.50;99.90;;;;;;5068893;28;19954;-69
2023/08/26 07:41:46;;;;;;;;;;;27.60;99.90;;;;;;5077106;28;20032;-70
2023/08/26 07:44:12;;;;;;;;;;;27.80;99.90;;;;;;5059378;28;20499;-70
2023/08/26 07:46:37;;;;;;;;;;;27.90;99.90;;;;;;5067568;28;20065;-72
2023/08/26 07:49:04;;;;;;;;;;;28.10;99.90;;;;;;5078864;28;20576;-71
2023/08/26 07:51:29;;;;;;;;;;;28.20;99.90;;;;;;5074329;28;20025;-71
2023/08/26 07:53:55;;;;;;;;;;;28.40;99.90;;;;;;5075855;28;20256;-69
2023/08/26 07:56:20;;;;;;;;;;;28.40;99.90;;;;;;5074791;28;19922;-69
2023/08/26 07:58:46;;;;;;;;;;;28.60;99.90;;;;;;5066925;28;20048;-69
2023/08/26 08:01:11;;;;;;;;;;;28.70;99.90;;;;;;5061372;28;20688;-69
2023/08/26 08:03:37;;;;;;;;;;;28.70;99.90;;;;;;5066789;28;19930;-69
2023/08/26 08:06:02;;;;;;;;;;;28.70;99.90;;;;;;5068992;28;19924;-68
2023/08/26 08:08:28;;;;;;;;;;;28.70;99.90;;;;;;5079247;28;19959;-70
2023/08/26 08:10:53;;;;;;;;;;;28.80;99.90;;;;;;5069906;28;20377;-69
2023/08/26 08:13:19;;;;;;;;;;;28.80;99.90;;;;;;5062978;28;19925;-70
2023/08/26 08:15:44;;;;;;;;;;;28.80;99.90;;;;;;5040812;28;19928;-69
2023/08/26 08:18:10;;;;;;;;;;;28.80;99.90;;;;;;5048900;28;19964;-70
2023/08/26 08:20:35;;;;;;;;;;;28.80;99.90;;;;;;5051201;28;20367;-62
2023/08/26 08:23:01;;;;;;;;;;;28.90;99.90;;;;;;5050794;28;20070;-62
2023/08/26 08:25:26;;;;;;;;;;;29.00;99.90;;;;;;5049200;28;19937;-62
2023/08/26 08:27:52;;;;;;;;;;;29.00;99.90;;;;;;5053869;28;19947;-63
2023/08/26 08:30:18;;;;;;;;;;;29.10;99.90;;;;;;5045299;28;19934;-63
2023/08/26 08:32:43;;;;;;;;;;;29.20;99.90;;;;;;5044722;28;20384;-63
2023/08/26 08:35:09;;;;;;;;;;;29.20;99.90;;;;;;5050466;28;20490;-64
2023/08/26 08:37:35;;;;;;;;;;;29.40;99.90;;;;;;5044749;28;21644;-63
2023/08/26 08:40:00;;;;;;;8.13;4.13;;;29.40;99.90;;;;;;5041387;28;20511;-63
2023/08/26 08:42:26;;;;;;;4.57;3.33;;;29.40;99.90;;;;;;5039504;28;20039;-63
2023/08/26 08:44:52;;;;;;;6.18;3.67;;;29.40;99.90;;;;;;5052759;28;20102;-62
2023/08/26 08:47:18;;;;;;;9.70;4.70;;;29.40;99.90;;;;;;5050515;28;20744;-62
2023/08/26 08:49:44;;;;;;;8.80;3.90;;;29.50;99.90;;;;;;5051651;28;20052;-62
2023/08/26 08:52:11;;;;;;;7.97;3.83;;;29.50;99.90;;;;;;5041247;28;20043;-62
2023/08/26 08:54:37;;;;;;;5.35;3.40;;;29.50;99.90;;;;;;5040160;28;20116;-63
2023/08/26 08:57:04;;;;;;;5.28;3.92;;;29.60;99.90;;;;;;5042481;28;20036;-68
2023/08/26 08:59:35;;;;;;;8.57;4.40;;;29.60;99.90;;;;;;5029023;28;20056;-68
2023/08/26 09:02:01;;;;;;;4.80;4.10;;;29.60;99.90;;;;;;5028385;28;20075;-69
2023/08/26 09:04:28;;;;;;;7.13;4.32;;;29.70;99.90;;;;;;5043174;28;20112;-68
2023/08/26 09:06:54;;;;;;;4.47;4.05;;;29.70;99.90;;;;;;5041681;28;20068;-69
2023/08/26 09:09:21;;;;;;;6.38;4.30;;;29.80;99.90;;;;;;5043263;28;20056;-67
2023/08/26 09:11:48;;;;;;;6.20;4.47;;;29.80;99.90;;;;;;5042238;28;20044;-71
2023/08/26 09:14:13;;;;;;;4.55;3.95;;;29.90;99.90;;;;;;5046109;28;20631;-71
2023/08/26 09:16:41;;;;;;;8.98;4.32;;;30.10;99.90;;;;;;5047471;28;20751;-71
2023/08/26 09:19:09;;;;;;;6.78;4.20;;;30.20;99.90;;;;;;5070478;28;20862;-72
2023/08/26 09:21:43;;;;;;;4.65;4.13;;;30.30;99.90;;;;;;5063113;28;20240;-73
2023/08/26 09:24:16;;;;;;;5.93;3.80;;;30.30;99.90;;;;;;5058137;28;20072;-72
2023/08/26 09:26:47;;;;;;;5.32;3.95;;;30.30;99.90;;;;;;5050162;28;20115;-72
2023/08/26 09:29:20;;;;;;;4.80;3.67;;;30.50;99.90;;;;;;5055579;28;20401;-72
2023/08/26 09:31:49;;;;;;;5.80;3.60;;;30.60;99.90;;;;;;5061047;28;20066;-71
2023/08/26 09:34:28;;;;;;;6.80;4.35;;;30.60;99.90;;;;;;5068440;28;20093;-72
2023/08/26 09:36:53;;;;;;;4.97;4.28;;;30.60;99.90;;;;;;5062561;28;20035;-72
2023/08/26 09:39:19;;;;;;;5.32;3.70;;;30.70;99.90;;;;;;5066303;28;20052;-71
2023/08/26 09:41:45;;;;;;;5.85;3.47;;;30.70;99.90;;;;;;5070931;28;20020;-71
2023/08/26 09:44:12;;;;;;;4.30;3.90;;;30.80;99.90;;;;;;5057965;28;20045;-70
2023/08/26 09:46:42;;;;;;;9.60;4.28;;;30.80;99.90;;;;;;5047407;28;20024;-72
2023/08/26 09:49:13;;;;;;;5.75;4.15;;;30.90;99.90;;;;;;5031789;28;20045;-71
2023/08/26 09:51:48;;;;;;;8.98;4.30;;;31.10;99.90;;;;;;5069782;28;20084;-70
2023/08/26 09:54:19;;;;;;;6.60;5.13;;;31.20;99.90;;;;;;5073768;28;20457;-71
2023/08/26 09:56:46;;;;;;;4.53;3.92;;;31.20;99.90;;;;;;5060798;28;20062;-71
2023/08/26 09:59:12;;;;;;;5.80;4.18;;;31.20;99.90;;;;;;5058554;28;20528;-72
2023/08/26 10:01:39;;;;;;;7.80;4.50;;;31.30;99.90;;;;;;5050137;28;20997;-71
2023/08/26 10:04:05;;;;;;;6.85;4.15;;;31.40;99.90;;;;;;5055527;28;20040;-72
2023/08/26 10:06:34;;;;;;;4.63;4.10;;;31.40;99.90;;;;;;5076456;28;20090;-73
2023/08/26 10:09:31;;;;;;;6.50;4.20;;;31.60;99.90;;;;;;5069864;28;20036;-73
2023/08/26 10:12:00;;;;;;;5.05;4.15;;;31.70;99.90;;;;;;5067919;28;20039;-72
2023/08/26 10:14:30;;;;;;;5.00;4.30;;;31.70;99.90;;;;;;5069912;28;20082;-71
2023/08/26 10:16:59;;;;;;;5.78;4.72;;;31.80;99.90;;;;;;5063395;28;20087;-72
2023/08/26 10:19:28;;;;;;;8.60;4.50;;;31.80;99.90;;;;;;5039050;28;20102;-71
2023/08/26 10:21:55;;;;;;;4.93;3.90;;;31.90;99.90;;;;;;5051649;28;20037;-71
2023/08/26 10:24:21;;;;;;;7.22;4.40;;;32.00;99.90;;;;;;5050453;28;20439;-71
2023/08/26 10:26:48;;;;;;;5.65;4.55;;;32.00;99.90;;;;;;5052271;28;20111;-72
2023/08/26 10:29:14;;;;;;;6.22;5.18;;;32.00;99.90;;;;;;5052415;28;20041;-70
2023/08/26 10:31:43;;;;;;;7.28;4.80;;;32.00;99.90;;;;;;5055011;28;20485;-71
2023/08/26 10:34:09;;;;;;;5.57;4.45;;;32.10;99.90;;;;;;5048900;28;20127;-72
2023/08/26 10:36:36;;;;;;;5.25;4.85;;;32.20;99.90;;;;;;5053596;28;20043;-70
2023/08/26 10:39:03;;;;;;;10.80;4.70;;;32.20;99.90;;;;;;5045966;28;20044;-72
2023/08/26 10:41:30;;;;;;;6.13;4.90;;;32.30;99.90;;;;;;5051342;28;20128;-69
2023/08/26 10:43:58;;;;;;;9.63;4.70;;;32.30;99.90;;;;;;5053392;28;20954;-68
2023/08/26 10:46:37;;;;;;;7.20;4.55;;;32.40;99.90;;;;;;5028818;28;20246;-69
2023/08/26 10:49:04;;;;;;;7.85;4.68;;;32.50;99.90;;;;;;5050035;28;20044;-68
2023/08/26 10:51:31;;;;;;;6.07;4.80;;;32.50;99.90;;;;;;5047324;28;20059;-68
2023/08/26 10:54:02;;;;;;;6.13;4.00;;;32.40;99.90;;;;;;5049637;28;20032;-69
2023/08/26 10:56:28;;;;;;;6.20;4.63;;;32.40;99.20;;;;;;5050946;28;20036;-71
2023/08/26 10:59:01;;;;;;;5.97;4.72;;;32.30;99.30;;;;;;5046031;28;20564;-67
2023/08/26 11:01:28;;;;;;;8.98;4.95;;;32.30;99.20;;;;;;5035721;28;20146;-68
2023/08/26 11:03:54;;;;;;;6.45;4.63;;;32.20;98.40;;;;;;5050817;28;20098;-69
2023/08/26 11:06:22;;;;;;;9.77;4.88;;;32.20;99.00;;;;;;5050144;28;20919;-64
2023/08/26 11:08:57;;;;;;;9.38;4.65;;;32.20;99.90;;;;;;5043022;28;20127;-63
2023/08/26 11:11:24;;;;;;;8.95;5.40;;;32.30;99.50;;;;;;5055816;28;20033;-63
2023/08/26 11:13:50;;;;;;;8.88;5.15;;;32.30;99.10;;;;;;5052468;28;20052;-64
2023/08/26 11:16:16;;;;;;;9.27;5.97;;;32.30;99.00;;;;;;5053084;28;20048;-69
2023/08/26 11:18:42;;;;;;;7.53;5.30;;;32.30;98.60;;;;;;5071263;28;20546;-67
2023/08/26 11:21:09;;;;;;;9.52;5.50;;;32.40;98.80;;;;;;5075705;28;20177;-67
2023/08/26 11:23:35;;;;;;;9.93;5.25;;;32.50;99.20;;;;;;5070816;28;20536;-66
2023/08/26 11:26:05;;;;;;;11.68;4.63;;;32.50;98.20;;;;;;5072094;28;20032;-67
2023/08/26 11:28:31;;;;;;;12.25;6.13;;;32.50;99.20;;;;;;5075501;28;20071;-67
2023/08/26 11:30:56;;;;;;;6.70;4.72;;;32.60;99.00;;;;;;5068375;28;20155;-66
2023/08/26 11:33:26;;;;;;;8.70;4.85;;;32.80;99.80;;;;;;5069748;28;20051;-65
2023/08/26 11:35:52;;;;;;;9.90;5.53;;;33.00;97.70;;;;;;5067726;28;20043;-65
2023/08/26 11:38:17;;;;;;;7.93;5.40;;;32.90;97.40;;;;;;5072215;28;20044;-64
2023/08/26 11:40:45;;;;;;;6.25;4.95;;;32.80;98.10;;;;;;5064695;28;20048;-64
2023/08/26 11:43:14;;;;;;;6.70;5.55;;;32.80;98.00;;;;;;5074970;28;20538;-66
2023/08/26 11:45:42;;;;;;;6.38;5.40;;;32.80;97.90;;;;;;5063994;28;20055;-66
2023/08/26 11:48:11;;;;;;;5.50;5.00;;;32.90;97.50;;;;;;5070670;28;20047;-64
2023/08/26 11:50:37;;;;;;;5.65;5.13;;;32.90;97.30;;;;;;5057261;28;20036;-63
2023/08/26 11:53:04;;;;;;;7.50;5.57;;;32.80;97.30;;;;;;5074646;28;20462;-63
2023/08/26 11:55:31;;;;;;;7.32;5.57;;;32.80;97.50;;;;;;5073155;28;20052;-64
2023/08/26 11:57:58;;;;;;;10.23;5.40;;;32.80;97.00;;;;;;5080257;28;20040;-64
2023/08/26 12:00:24;;;;;;;8.73;5.43;;;32.70;97.30;;;;;;5071584;28;20667;-69
2023/08/26 12:02:51;;;;;;;12.55;6.13;;;32.70;97.20;;;;;;5070153;28;20036;-69
2023/08/26 12:05:18;;;;;;;7.03;6.25;;;32.50;97.40;;;;;;5067978;28;20035;-70
2023/08/26 12:07:45;;;;;;;6.50;5.20;;;32.40;97.10;;;;;;5067665;28;20040;-70
2023/08/26 12:10:12;;;;;;;6.50;5.72;;;32.40;97.20;;;;;;5066400;28;20135;-69
2023/08/26 12:12:40;;;;;;;7.05;5.90;;;32.40;97.30;;;;;;5061392;28;20044;-69
2023/08/26 12:15:11;;;;;;;6.28;5.68;;;32.50;98.50;;;;;;5071250;28;20032;-69
2023/08/26 12:17:45;;;;;;;6.15;5.30;;;32.70;98.30;;;;;;5067263;28;20478;-69
2023/08/26 12:20:20;;;;;;;8.57;6.00;;;32.80;98.40;;;;;;5068756;28;20068;-64
2023/08/26 12:22:50;;;;;;;7.63;5.30;;;33.00;98.30;;;;;;5069694;28;20452;-63
2023/08/26 12:25:17;;;;;;;10.48;5.88;;;33.20;97.00;;;;;;5069476;28;20054;-63
2023/08/26 12:27:42;;;;;;;8.90;6.20;;;33.30;96.70;;;;;;5067115;28;20098;-63
2023/08/26 12:30:08;;;;;;;8.00;5.60;;;33.40;96.40;;;;;;5068000;28;20041;-63
2023/08/26 12:32:35;;;;;;;12.65;6.00;;;33.50;95.70;;;;;;5066356;28;20553;-63
2023/08/26 12:35:01;;;;;;;11.23;6.00;;;33.50;96.40;;;;;;5076654;28;20028;-63
2023/08/26 12:37:26;;;;;;;8.13;5.80;;;33.60;96.50;;;;;;5074940;28;20050;-63
2023/08/26 12:39:52;;;;;;;6.25;5.40;;;33.70;96.30;;;;;;5073738;28;20051;-64
2023/08/26 12:42:18;;;;;;;7.30;5.65;;;33.70;95.80;;;;;;5076520;28;20090;-64
2023/08/26 12:44:43;;;;;;;9.13;5.57;;;33.70;95.60;;;;;;5066293;28;20036;-64
2023/08/26 12:47:09;;;;;;;9.13;5.63;;;33.80;95.60;;;;;;5073710;28;20569;-64
2023/08/26 12:49:34;;;;;;;7.07;5.70;;;33.80;96.40;;;;;;5075232;28;20489;-64
2023/08/26 12:52:00;;;;;;;9.02;5.68;;;33.80;95.00;;;;;;5076356;28;20067;-64
2023/08/26 12:54:26;;;;;;;18.58;6.70;;;33.70;94.90;;;;;;5065458;28;20120;-65
2023/08/26 12:56:52;;;;;;;6.90;5.75;;;33.70;94.80;;;;;;5057613;28;20086;-72
2023/08/26 12:59:17;;;;;;;7.80;5.78;;;33.60;94.70;;;;;;5063535;28;24067;-72
2023/08/26 13:01:43;;;;;;;7.82;5.75;;;33.50;95.10;;;;;;5057408;28;20036;-73
2023/08/26 13:04:08;;;;;;;11.35;6.53;;;33.30;94.70;;;;;;5059464;28;20037;-71
2023/08/26 13:06:35;;;;;;;7.35;6.07;;;33.30;94.70;;;;;;5059945;28;20570;-71
2023/08/26 13:09:01;;;;;;;6.85;6.22;;;33.20;95.20;;;;;;5053942;28;20048;-70
2023/08/26 13:11:27;;;;;;;6.82;5.90;;;33.10;95.00;;;;;;5045766;28;20117;-70
2023/08/26 13:13:53;;;;;;;6.53;5.88;;;33.00;94.80;;;;;;5062034;28;20032;-72
2023/08/26 13:16:19;;;;;;;8.73;5.97;;;33.00;95.10;;;;;;5056648;28;20497;-72
2023/08/26 13:18:44;;;;;;;7.65;5.95;;;33.00;95.00;;;;;;5057484;28;20054;-69
2023/08/26 13:21:10;;;;;;;8.68;5.95;;;32.90;94.90;;;;;;5065623;28;20102;-71
2023/08/26 13:23:36;;;;;;;10.00;5.63;;;32.90;94.70;;;;;;5073340;28;20448;-71
2023/08/26 13:26:02;;;;;;;6.47;5.82;;;32.80;94.70;;;;;;5074737;28;20111;-70
2023/08/26 13:28:27;;;;;;;6.85;5.38;;;32.70;94.60;;;;;;5076030;28;20035;-70
2023/08/26 13:30:55;;;;;;;6.28;5.78;;;32.70;95.00;;;;;;5073404;28;20039;-71
2023/08/26 13:33:21;;;;;;;6.72;6.03;;;32.70;94.70;;;;;;5073673;28;20481;-61
2023/08/26 13:35:47;;;;;;;14.27;6.18;;;32.80;94.10;;;;;;5058369;28;20040;-61
2023/08/26 13:38:13;;;;;;;6.40;5.32;;;32.70;94.70;;;;;;5066308;28;20066;-61